Linzy — SIRU — position and weather

sailwx.info

Track history (hours):
 
Tides and Currents Weather Stations Pressure Air Temp Water Temp Dewpoint Dewpoint Depression Visibility Wind Speed Wind Dir Waves Ship Positions

Linzy

Last reported at 2014-Oct-21 23:14 UTC. Time now 2014-Oct-22 00:09 UTC.
Position N 55°33' E 014°21'.

Length 15 m.

Type: Fishing. MMSI: 265507290.

Date/timePositionNaut miles runAvg speedWind from/ knotsBaromVisibWave heightAir tempDewpointWater temp
2014-Oct-21 23:14N 55°33' E 014°21'0 0.0
2014-Oct-21 22:32N 55°33' E 014°21'0 0.0
2014-Oct-21 21:26N 55°33' E 014°21'0 0.0
2014-Oct-21 20:08N 55°33' E 014°21'0 0.0
2014-Oct-21 19:20N 55°33' E 014°21'0 0.0
2014-Oct-21 18:26N 55°33' E 014°21'0 0.0
2014-Oct-21 17:26N 55°33' E 014°21'2 1.8
2014-Oct-21 16:33N 55°34' E 014°24'8 7.7
2014-Oct-21 15:32N 55°37' E 014°37'5 4.4
2014-Oct-21 14:28N 55°38' E 014°45'3 3.1
2014-Oct-21 13:30N 55°39' E 014°50'8 1.2
2014-Oct-21 06:24N 55°38' E 014°35'3 3.2
2014-Oct-21 05:24N 55°37' E 014°29'6 4.9
2014-Oct-21 04:13N 55°34' E 014°22'0 0.1
2014-Oct-21 03:27N 55°33' E 014°22'0 0.0
2014-Oct-21 02:21N 55°33' E 014°22'0 0.0
2014-Oct-21 00:15N 55°33' E 014°22'0 0.0
2014-Oct-20 23:33N 55°33' E 014°22'0 0.0
2014-Oct-20 22:33N 55°33' E 014°22'0 0.0
2014-Oct-20 21:09N 55°33' E 014°22'0 0.0
2014-Oct-20 20:21N 55°33' E 014°22'0 0.0
2014-Oct-20 19:33N 55°33' E 014°22'0 0.0
2014-Oct-20 17:33N 55°33' E 014°22'0 0.0
2014-Oct-20 16:33N 55°33' E 014°22'0 0.0
2014-Oct-20 14:33N 55°33' E 014°22'0 0.1
2014-Oct-20 13:31N 55°33' E 014°22'0 0.0
2014-Oct-20 12:25N 55°33' E 014°22'0 0.0
2014-Oct-20 11:31N 55°33' E 014°21'0 0.0
2014-Oct-20 10:31N 55°33' E 014°22'0 0.0
2014-Oct-20 09:31N 55°33' E 014°22'0 0.0
2014-Oct-20 08:31N 55°33' E 014°22'0 0.0
2014-Oct-20 07:25N 55°33' E 014°21'0 0.0
2014-Oct-20 06:31N 55°33' E 014°21'0 0.0
2014-Oct-20 05:25N 55°33' E 014°22'0 0.0
2014-Oct-20 04:25N 55°33' E 014°22'0 0.0
2014-Oct-20 03:31N 55°33' E 014°22'0 0.0
2014-Oct-20 02:31N 55°33' E 014°21'0 0.0
2014-Oct-20 00:14N 55°33' E 014°21'0 0.0
2014-Oct-19 23:31N 55°33' E 014°21'0 0.0
2014-Oct-19 22:25N 55°33' E 014°21'0 0.0
2014-Oct-19 21:31N 55°33' E 014°21'0 0.0
2014-Oct-19 20:25N 55°33' E 014°21'0 0.0
2014-Oct-19 19:31N 55°33' E 014°21'0 0.0
2014-Oct-19 18:25N 55°33' E 014°22'0 0.0
2014-Oct-19 17:25N 55°33' E 014°21'0 0.0
2014-Oct-19 16:31N 55°33' E 014°21'0 0.0
2014-Oct-19 15:31N 55°33' E 014°22'0 0.0
2014-Oct-19 14:31N 55°33' E 014°22'0 0.0
2014-Oct-19 13:31N 55°33' E 014°22'0 0.0
2014-Oct-19 12:31N 55°33' E 014°22'0 0.0
2014-Oct-19 11:31N 55°33' E 014°21'0 0.0
2014-Oct-19 10:25N 55°33' E 014°21'  
2014-Oct-13 19:31N 55°33' E 014°21'0 0.0
2014-Oct-13 18:13N 55°33' E 014°21'0 0.0
2014-Oct-13 16:25N 55°33' E 014°21'0 0.0
2014-Oct-13 15:19N 55°33' E 014°21'0 0.0
2014-Oct-13 14:25N 55°33' E 014°21'  
Track history (hours):
 
Tides and Currents Weather Stations Pressure Air Temp Water Temp Dewpoint Dewpoint Depression Visibility Wind Speed Wind Dir Waves Ship Positions

Linzy

Last reported at 2014-Oct-21 23:14 UTC. Time now 2014-Oct-22 00:09 UTC.
Position N 55°33' E 014°21'.

Length 15 m.

Type: Fishing. MMSI: 265507290.

Date/timePositionNaut miles runAvg speedWind from/ knotsBaromVisibWave heightAir tempDewpointWater temp
2014-Oct-21 23:14N 55°33' E 014°21'0 0.0
2014-Oct-21 22:32N 55°33' E 014°21'0 0.0
2014-Oct-21 21:26N 55°33' E 014°21'0 0.0
2014-Oct-21 20:08N 55°33' E 014°21'0 0.0
2014-Oct-21 19:20N 55°33' E 014°21'0 0.0
2014-Oct-21 18:26N 55°33' E 014°21'0 0.0
2014-Oct-21 17:26N 55°33' E 014°21'2 1.8
2014-Oct-21 16:33N 55°34' E 014°24'8 7.7
2014-Oct-21 15:32N 55°37' E 014°37'5 4.4
2014-Oct-21 14:28N 55°38' E 014°45'3 3.1
2014-Oct-21 13:30N 55°39' E 014°50'8 1.2
2014-Oct-21 06:24N 55°38' E 014°35'3 3.2
2014-Oct-21 05:24N 55°37' E 014°29'6 4.9
2014-Oct-21 04:13N 55°34' E 014°22'0 0.1
2014-Oct-21 03:27N 55°33' E 014°22'0 0.0
2014-Oct-21 02:21N 55°33' E 014°22'0 0.0
2014-Oct-21 00:15N 55°33' E 014°22'0 0.0
2014-Oct-20 23:33N 55°33' E 014°22'0 0.0
2014-Oct-20 22:33N 55°33' E 014°22'0 0.0
2014-Oct-20 21:09N 55°33' E 014°22'0 0.0
2014-Oct-20 20:21N 55°33' E 014°22'0 0.0
2014-Oct-20 19:33N 55°33' E 014°22'0 0.0
2014-Oct-20 17:33N 55°33' E 014°22'0 0.0
2014-Oct-20 16:33N 55°33' E 014°22'0 0.0
2014-Oct-20 14:33N 55°33' E 014°22'0 0.1
2014-Oct-20 13:31N 55°33' E 014°22'0 0.0
2014-Oct-20 12:25N 55°33' E 014°22'0 0.0
2014-Oct-20 11:31N 55°33' E 014°21'0 0.0
2014-Oct-20 10:31N 55°33' E 014°22'0 0.0
2014-Oct-20 09:31N 55°33' E 014°22'0 0.0
2014-Oct-20 08:31N 55°33' E 014°22'0 0.0
2014-Oct-20 07:25N 55°33' E 014°21'0 0.0
2014-Oct-20 06:31N 55°33' E 014°21'0 0.0
2014-Oct-20 05:25N 55°33' E 014°22'0 0.0
2014-Oct-20 04:25N 55°33' E 014°22'0 0.0
2014-Oct-20 03:31N 55°33' E 014°22'0 0.0
2014-Oct-20 02:31N 55°33' E 014°21'0 0.0
2014-Oct-20 00:14N 55°33' E 014°21'0 0.0
2014-Oct-19 23:31N 55°33' E 014°21'0 0.0
2014-Oct-19 22:25N 55°33' E 014°21'0 0.0
2014-Oct-19 21:31N 55°33' E 014°21'0 0.0
2014-Oct-19 20:25N 55°33' E 014°21'0 0.0
2014-Oct-19 19:31N 55°33' E 014°21'0 0.0
2014-Oct-19 18:25N 55°33' E 014°22'0 0.0
2014-Oct-19 17:25N 55°33' E 014°21'0 0.0
2014-Oct-19 16:31N 55°33' E 014°21'0 0.0
2014-Oct-19 15:31N 55°33' E 014°22'0 0.0
2014-Oct-19 14:31N 55°33' E 014°22'0 0.0
2014-Oct-19 13:31N 55°33' E 014°22'0 0.0
2014-Oct-19 12:31N 55°33' E 014°22'0 0.0
2014-Oct-19 11:31N 55°33' E 014°21'0 0.0
2014-Oct-19 10:25N 55°33' E 014°21'  
2014-Oct-13 19:31N 55°33' E 014°21'0 0.0
2014-Oct-13 18:13N 55°33' E 014°21'0 0.0
2014-Oct-13 16:25N 55°33' E 014°21'0 0.0
2014-Oct-13 15:19N 55°33' E 014°21'0 0.0
2014-Oct-13 14:25N 55°33' E 014°21'  

Dump ship's entire track history